Time;durP1;ratioP1;P1;durP2;ratioP2;P2;SDS_P1;SDS_P2;PMS_P1;PMS_P2;Temp;Humidity;BMP_temperature;BMP_pressure;BME280_temperature;BME280_humidity;BME280_pressure;Samples;Min_cycle;Max_cycle;Signal;HPM_P1;HPM_P2
2022/09/27 00:00:03;;;;;;;7.07;5.47;;;;;;;16.66;63.45;92953.94;5030630;28;20047;-78
2022/09/27 00:02:29;;;;;;;7.75;5.03;;;;;;;16.69;63.36;92970.06;5029790;28;20087;-78
2022/09/27 00:04:55;;;;;;;7.38;5.40;;;;;;;16.84;62.88;92973.66;5031646;28;20057;-77
2022/09/27 00:07:20;;;;;;;7.78;5.28;;;;;;;16.85;62.64;92967.13;5029074;28;20575;-77
2022/09/27 00:09:46;;;;;;;9.10;5.82;;;;;;;16.90;62.65;92969.47;5030681;28;20057;-77
2022/09/27 00:12:11;;;;;;;10.38;6.10;;;;;;;16.91;62.45;92973.72;5028175;28;20032;-77
2022/09/27 00:14:36;;;;;;;8.13;5.22;;;;;;;16.92;62.75;92975.22;5028725;28;20124;-78
2022/09/27 00:17:02;;;;;;;5.15;4.65;;;;;;;16.75;62.55;92965.16;5025874;28;20033;-76
2022/09/27 00:19:28;;;;;;;5.65;5.05;;;;;;;16.76;62.51;92964.00;5033528;28;20454;-77
2022/09/27 00:21:53;;;;;;;7.13;4.25;;;;;;;16.88;61.93;92977.13;5029745;28;20044;-78
2022/09/27 00:24:20;;;;;;;9.45;4.40;;;;;;;16.87;62.10;92985.53;5029115;28;20468;-76
2022/09/27 00:26:47;;;;;;;5.25;4.38;;;;;;;16.63;62.78;92970.78;5060396;28;20048;-77
2022/09/27 00:29:15;;;;;;;7.95;5.13;;;;;;;16.63;62.68;92981.50;5058815;28;20033;-78
2022/09/27 00:31:40;;;;;;;6.50;4.68;;;;;;;16.77;62.29;92994.31;5028664;28;20030;-78
2022/09/27 00:34:06;;;;;;;6.57;4.18;;;;;;;16.81;62.85;92981.69;5058717;28;20037;-77
2022/09/27 00:36:32;;;;;;;8.65;5.03;;;;;;;16.88;62.19;92982.50;5028898;28;20029;-77
2022/09/27 00:38:59;;;;;;;8.95;5.93;;;;;;;16.81;62.40;92963.66;5028582;28;20489;-78
2022/09/27 00:41:31;;;;;;;6.20;5.05;;;;;;;16.88;62.24;92979.81;5026225;28;20025;-76
2022/09/27 00:44:03;;;;;;;6.25;5.65;;;;;;;16.79;62.36;92949.81;5032298;28;20526;-78
2022/09/27 00:46:34;;;;;;;7.90;5.30;;;;;;;16.92;62.12;92983.28;5027831;28;20037;-77
2022/09/27 00:49:12;;;;;;;7.15;5.63;;;;;;;16.93;62.27;92982.16;5028219;28;20024;-77
2022/09/27 00:51:39;;;;;;;7.22;5.47;;;;;;;16.95;62.16;92971.81;5043193;28;20028;-78
2022/09/27 00:54:08;;;;;;;7.85;5.00;;;;;;;16.84;62.41;92952.16;5028329;28;20033;-77
2022/09/27 00:56:35;;;;;;;6.35;4.75;;;;;;;16.79;62.39;92930.25;5035985;28;20023;-77
2022/09/27 00:59:07;;;;;;;9.63;5.45;;;;;;;16.67;62.30;92912.53;5028644;28;20017;-78
2022/09/27 01:01:34;;;;;;;6.38;4.53;;;;;;;16.99;62.29;92956.50;5025644;28;20941;-77
2022/09/27 01:04:07;;;;;;;10.63;5.35;;;;;;;16.96;61.66;92926.94;5028049;28;20489;-77
2022/09/27 01:06:58;;;;;;;4.22;3.63;;;;;;;16.95;61.60;92949.56;5027548;28;20022;-78
2022/09/27 01:09:24;;;;;;;5.47;3.90;;;;;;;16.56;62.04;92895.59;5028642;28;20036;-76
2022/09/27 01:12:18;;;;;;;6.25;4.70;;;;;;;16.86;62.20;92960.63;5027550;28;20021;-77
2022/09/27 01:15:22;;;;;;;4.63;4.15;;;;;;;16.52;62.32;92910.88;5028974;28;20217;-77
2022/09/27 01:17:59;;;;;;;6.38;4.88;;;;;;;16.77;62.44;92943.31;5023733;28;20040;-77
2022/09/27 01:23:45;;;;;;;9.27;4.60;;;;;;;16.58;63.56;92941.59;5069127;27;20569;-76
2022/09/27 01:26:32;;;;;;;5.85;5.25;;;;;;;16.56;63.77;92927.78;5065630;28;20059;-77
2022/09/27 01:29:11;;;;;;;6.82;4.78;;;;;;;16.54;63.33;92922.78;5067359;28;20025;-76
2022/09/27 01:31:54;;;;;;;6.63;4.43;;;;;;;16.52;63.96;92924.31;5067668;28;20029;-77
2022/09/27 01:34:22;;;;;;;6.47;4.88;;;;;;;16.36;64.74;92931.84;5064670;28;20138;-77
2022/09/27 01:37:09;;;;;;;7.18;4.32;;;;;;;16.34;64.54;92945.59;5067247;28;20036;-77
2022/09/27 01:39:56;;;;;;;5.43;4.65;;;;;;;16.41;64.23;92958.31;5068641;28;20028;-77
2022/09/27 01:42:30;;;;;;;6.20;4.57;;;;;;;16.35;64.19;92943.69;5066604;28;20029;-77
2022/09/27 01:45:03;;;;;;;6.03;4.70;;;;;;;16.37;64.17;92965.56;5065190;28;20039;-78
2022/09/27 01:47:33;;;;;;;7.20;4.60;;;;;;;16.16;64.59;92921.28;5075630;28;20098;-78
2022/09/27 01:50:13;;;;;;;6.32;4.50;;;;;;;16.34;64.17;92942.94;5064113;28;20021;-77
2022/09/27 01:52:49;;;;;;;6.35;5.28;;;;;;;16.40;64.27;92957.56;5065884;28;20021;-77
2022/09/27 01:55:18;;;;;;;5.47;4.88;;;;;;;16.34;64.82;92967.06;5066336;28;20113;-76
2022/09/27 01:57:54;;;;;;;6.15;4.57;;;;;;;16.13;64.77;92892.53;5059885;28;20059;-78
2022/09/27 02:00:20;;;;;;;9.05;5.72;;;;;;;16.15;65.18;92911.69;5067918;28;20699;-77
2022/09/27 02:02:51;;;;;;;5.72;4.88;;;;;;;16.33;64.87;92923.38;5064397;28;20028;-76
2022/09/27 02:05:19;;;;;;;7.55;5.28;;;;;;;16.21;64.82;92912.13;5063210;28;20082;-78
2022/09/27 02:07:48;;;;;;;6.18;4.72;;;;;;;16.35;64.72;92927.59;5066630;28;20035;-77
2022/09/27 02:10:27;;;;;;;12.82;5.55;;;;;;;16.21;64.73;92886.06;5064290;28;20251;-77
2022/09/27 02:13:23;;;;;;;7.45;5.07;;;;;;;16.07;64.66;92863.72;5064020;28;20016;-77
2022/09/27 02:16:14;;;;;;;7.00;4.68;;;;;;;16.23;65.06;92915.97;5063589;28;20029;-77
2022/09/27 02:18:54;;;;;;;7.28;4.57;;;;;;;16.29;64.55;92916.41;5062929;28;20021;-77
2022/09/27 02:21:24;;;;;;;5.60;4.38;;;;;;;16.12;64.79;92853.44;5062455;28;20060;-77
2022/09/27 02:23:56;;;;;;;7.68;5.00;;;;;;;16.09;64.16;92850.69;5063134;28;20028;-78
2022/09/27 02:26:24;;;;;;;7.90;4.80;;;;;;;16.36;64.55;92872.81;5064289;28;20226;-77
2022/09/27 02:29:16;;;;;;;6.13;4.80;;;;;;;16.40;64.49;92870.91;5065026;28;20024;-77
2022/09/27 02:31:41;;;;;;;10.32;5.13;;;;;;;16.33;64.40;92864.34;5059431;28;20589;-77
2022/09/27 02:34:21;;;;;;;4.88;4.13;;;;;;;16.17;64.07;92826.25;5053282;28;20112;-77
2022/09/27 02:36:47;;;;;;;7.15;4.63;;;;;;;16.40;64.22;92846.75;5058942;28;20032;-77
2022/09/27 02:39:13;;;;;;;5.28;4.30;;;;;;;16.11;64.81;92841.16;5050827;28;20021;-77
2022/09/27 02:41:38;;;;;;;5.38;4.43;;;;;;;16.29;64.39;92842.06;5048160;28;20023;-77
2022/09/27 02:44:08;;;;;;;5.40;4.30;;;;;;;16.21;64.31;92851.19;5050220;28;20038;-78
2022/09/27 02:47:00;;;;;;;5.28;3.83;;;;;;;16.35;64.39;92863.19;5050382;28;20051;-77
2022/09/27 02:49:56;;;;;;;5.82;4.50;;;;;;;16.37;64.33;92858.25;5042384;28;20474;-77
2022/09/27 02:52:33;;;;;;;5.15;3.95;;;;;;;16.37;64.20;92863.63;5050992;28;20056;-77
2022/09/27 02:55:18;;;;;;;5.72;4.45;;;;;;;16.23;64.64;92877.66;5051083;28;20055;-77
2022/09/27 02:57:54;;;;;;;7.45;4.63;;;;;;;16.20;64.74;92889.88;5050894;28;20060;-78
2022/09/27 03:00:23;;;;;;;5.47;4.75;;;;;;;16.14;65.04;92864.53;5052481;28;20479;-77
2022/09/27 03:03:21;;;;;;;4.97;4.43;;;;;;;16.21;64.91;92869.19;5049769;28;20024;-77
2022/09/27 03:05:53;;;;;;;6.07;4.22;;;;;;;16.18;64.82;92856.53;5052286;28;20429;-77
2022/09/27 03:08:19;;;;;;;6.07;4.15;;;;;;;16.16;64.59;92830.09;5052277;28;20546;-77
2022/09/27 03:10:44;;;;;;;6.60;4.90;;;;;;;16.15;64.40;92807.06;5050703;28;20035;-77
2022/09/27 03:13:10;;;;;;;5.32;4.10;;;;;;;16.18;64.33;92805.56;5052385;28;20421;-77
2022/09/27 03:15:36;;;;;;;6.68;3.97;;;;;;;16.26;64.55;92815.97;5058147;28;20051;-77
2022/09/27 03:18:02;;;;;;;5.05;4.03;;;;;;;16.04;64.27;92774.03;5050051;28;20056;-76
2022/09/27 03:20:28;;;;;;;5.35;3.88;;;;;;;16.07;64.25;92778.66;5051292;28;20027;-78
2022/09/27 03:22:55;;;;;;;6.47;4.25;;;;;;;16.36;64.15;92811.09;5048361;28;20754;-78
2022/09/27 03:25:20;;;;;;;8.32;4.45;;;;;;;16.38;63.79;92814.19;5048465;28;20742;-77
2022/09/27 03:27:46;;;;;;;6.00;3.92;;;;;;;16.35;63.98;92817.59;5050917;28;20032;-77
2022/09/27 03:30:13;;;;;;;6.30;4.70;;;;;;;16.20;63.86;92792.53;5048986;28;20041;-77
2022/09/27 03:32:42;;;;;;;6.35;4.43;;;;;;;16.35;64.02;92809.53;5051623;28;20111;-77
2022/09/27 03:35:08;;;;;;;5.18;4.13;;;;;;;16.22;64.05;92793.72;5052614;28;20029;-76
2022/09/27 03:37:33;;;;;;;6.55;4.82;;;;;;;16.20;64.25;92797.91;5051035;28;20024;-77
2022/09/27 03:39:58;;;;;;;6.35;4.72;;;;;;;16.36;64.07;92811.09;5049204;28;20469;-77
2022/09/27 03:42:24;;;;;;;7.13;5.07;;;;;;;16.22;63.88;92772.28;5050672;28;20035;-77
2022/09/27 03:44:50;;;;;;;5.82;3.92;;;;;;;16.39;63.93;92795.00;5048695;28;20546;-77
2022/09/27 03:47:15;;;;;;;6.25;4.47;;;;;;;16.25;64.11;92784.94;5050449;28;20491;-77
2022/09/27 03:49:41;;;;;;;6.72;5.05;;;;;;;15.95;64.50;92765.53;5049017;28;20135;-77
2022/09/27 03:52:06;;;;;;;9.68;6.50;;;;;;;16.08;64.67;92784.81;5050515;28;20020;-78
2022/09/27 03:54:32;;;;;;;6.38;5.32;;;;;;;15.99;65.82;92819.97;5048529;28;20494;-77
2022/09/27 03:56:57;;;;;;;6.93;5.50;;;;;;;15.91;65.98;92799.59;5050874;28;20095;-77
2022/09/27 03:59:23;;;;;;;8.68;5.75;;;;;;;16.08;65.50;92814.31;5063272;28;20421;-77
2022/09/27 04:01:48;;;;;;;6.72;5.13;;;;;;;16.00;65.34;92799.28;5050073;28;20429;-77
2022/09/27 04:04:14;;;;;;;6.03;5.22;;;;;;;16.01;65.40;92806.97;5049784;28;20135;-77
2022/09/27 04:06:39;;;;;;;12.05;5.07;;;;;;;15.93;65.62;92791.97;5050687;28;20074;-77
2022/09/27 04:09:05;;;;;;;6.68;5.53;;;;;;;15.84;65.70;92788.84;5049988;28;20059;-77
2022/09/27 04:11:30;;;;;;;7.50;6.00;;;;;;;16.07;65.44;92812.75;5050196;28;20087;-77
2022/09/27 04:13:56;;;;;;;10.60;5.63;;;;;;;16.12;65.49;92802.47;5051277;28;20035;-76
2022/09/27 04:16:22;;;;;;;10.27;6.47;;;;;;;16.15;65.20;92806.31;5051276;28;20155;-76
2022/09/27 04:18:47;;;;;;;8.32;6.47;;;;;;;16.01;65.08;92779.38;5055715;28;20488;-77
2022/09/27 04:21:13;;;;;;;8.85;6.55;;;;;;;16.11;65.32;92800.16;5048771;28;20049;-77
2022/09/27 04:23:38;;;;;;;10.38;6.90;;;;;;;16.12;65.51;92802.47;5051862;28;20024;-77
2022/09/27 04:26:04;;;;;;;8.23;6.05;;;;;;;16.17;65.15;92807.50;5047890;28;20163;-77
2022/09/27 04:28:29;;;;;;;7.68;6.35;;;;;;;16.13;65.06;92811.28;5050000;28;20551;-77
2022/09/27 04:30:55;;;;;;;7.85;6.30;;;;;;;16.14;65.19;92794.03;5049529;28;20028;-77
2022/09/27 04:33:20;;;;;;;9.55;6.95;;;;;;;16.11;65.42;92786.72;5051198;28;20017;-77
2022/09/27 04:38:30;;;;;;;8.98;6.95;;;;;;;16.12;65.59;92781.00;5049722;28;21269;-78
2022/09/27 04:40:55;;;;;;;10.88;7.28;;;;;;;16.08;65.61;92774.84;5049888;28;20029;-77
2022/09/27 04:43:21;;;;;;;9.98;7.05;;;;;;;15.99;65.72;92782.41;5047392;28;20036;-77
2022/09/27 04:45:46;;;;;;;10.05;7.32;;;;;;;16.12;65.60;92807.06;5047943;28;20747;-77
2022/09/27 04:48:12;;;;;;;10.85;6.97;;;;;;;16.10;65.70;92820.81;5050076;28;20036;-77
2022/09/27 04:50:38;;;;;;;11.50;8.73;;;;;;;16.02;65.99;92810.41;5049221;28;20024;-78
2022/09/27 04:53:03;;;;;;;12.43;7.90;;;;;;;15.97;66.38;92811.53;5049264;28;20044;-77
2022/09/27 04:55:29;;;;;;;10.15;7.97;;;;;;;16.05;66.36;92829.22;5049982;28;20083;-77
2022/09/27 04:57:54;;;;;;;11.02;8.05;;;;;;;15.88;66.65;92792.31;5047497;28;20017;-76
2022/09/27 05:00:20;;;;;;;13.45;7.50;;;;;;;16.04;66.09;92806.22;5050175;28;20029;-77
2022/09/27 05:02:48;;;;;;;10.85;9.10;;;;;;;16.11;66.35;92800.91;5048715;28;20310;-77
2022/09/27 05:05:14;;;;;;;10.80;7.72;;;;;;;15.91;65.96;92767.44;5049243;28;20091;-78
2022/09/27 05:07:40;;;;;;;12.25;8.15;;;;;;;16.17;66.03;92796.75;5049694;28;20498;-77
2022/09/27 05:10:07;;;;;;;11.48;8.25;;;;;;;16.22;66.01;92803.69;5047879;28;21111;-77
2022/09/27 05:12:33;;;;;;;8.98;7.43;;;;;;;16.20;65.73;92787.94;5047260;28;20028;-76
2022/09/27 05:14:58;;;;;;;11.05;8.07;;;;;;;16.07;65.83;92765.25;5050939;28;20048;-77
2022/09/27 05:17:24;;;;;;;9.27;7.32;;;;;;;15.96;66.25;92742.19;5049906;28;20036;-76
2022/09/27 05:19:49;;;;;;;9.77;7.10;;;;;;;16.05;66.23;92764.84;5048849;28;20040;-77
2022/09/27 05:22:15;;;;;;;9.13;7.43;;;;;;;16.23;66.34;92787.19;5046647;28;20136;-77
2022/09/27 05:24:41;;;;;;;9.75;7.55;;;;;;;16.19;66.35;92767.63;5047891;28;20623;-77
2022/09/27 05:27:10;;;;;;;8.48;6.75;;;;;;;16.25;66.22;92778.78;5048639;28;20032;-77
2022/09/27 05:29:36;;;;;;;11.80;7.93;;;;;;;16.28;66.42;92773.44;5046849;28;20395;-77
2022/09/27 05:32:01;;;;;;;9.20;7.65;;;;;;;16.23;66.31;92765.00;5048845;28;20380;-77
2022/09/27 05:34:27;;;;;;;9.57;7.40;;;;;;;16.26;65.88;92774.97;5050305;28;20375;-77
2022/09/27 05:36:52;;;;;;;10.30;7.35;;;;;;;16.31;66.21;92785.38;5050329;28;20039;-76
2022/09/27 05:39:18;;;;;;;9.20;6.60;;;;;;;15.91;65.81;92732.56;5047902;28;20135;-76
2022/09/27 05:41:49;;;;;;;8.05;6.20;;;;;;;16.24;65.88;92782.59;5050889;28;20056;-77
2022/09/27 05:44:15;;;;;;;9.13;7.50;;;;;;;16.26;66.23;92797.19;5048391;28;20437;-77
2022/09/27 05:46:41;;;;;;;9.00;6.88;;;;;;;16.35;65.83;92804.94;5048368;28;20053;-76
2022/09/27 05:49:07;;;;;;;12.32;7.40;;;;;;;16.35;66.12;92794.22;5047092;28;20167;-77
2022/09/27 05:51:32;;;;;;;9.77;7.63;;;;;;;16.11;66.48;92751.88;5049304;28;20023;-77
2022/09/27 05:53:58;;;;;;;10.77;7.38;;;;;;;16.33;66.65;92783.06;5048834;28;20028;-76
2022/09/27 05:56:23;;;;;;;10.43;7.72;;;;;;;16.14;66.25;92735.03;5048477;28;20025;-76
2022/09/27 05:58:49;;;;;;;9.00;7.72;;;;;;;16.28;66.35;92772.69;5048318;28;20470;-77
2022/09/27 06:01:15;;;;;;;10.43;7.28;;;;;;;16.29;66.47;92777.66;5047195;28;20025;-77
2022/09/27 06:03:41;;;;;;;10.50;7.75;;;;;;;16.19;66.43;92759.59;5049689;28;20029;-77
2022/09/27 06:06:09;;;;;;;10.15;7.43;;;;;;;16.31;66.35;92778.09;5049446;28;20397;-77
2022/09/27 06:08:36;;;;;;;11.25;7.32;;;;;;;16.18;66.57;92776.06;5049179;28;20047;-76
2022/09/27 06:11:07;;;;;;;9.07;7.10;;;;;;;16.18;66.62;92760.72;5052892;28;20032;-76
2022/09/27 06:13:35;;;;;;;10.15;8.25;;;;;;;16.17;66.88;92761.13;5051747;28;20105;-77
2022/09/27 06:16:01;;;;;;;11.60;8.35;;;;;;;16.12;66.98;92754.19;5050460;28;20383;-76
2022/09/27 06:18:26;;;;;;;13.15;9.18;;;;;;;16.17;67.71;92794.06;5050725;28;20119;-76
2022/09/27 06:20:52;;;;;;;15.80;9.27;;;;;;;16.26;67.91;92796.44;5050186;28;20020;-76
2022/09/27 06:23:19;;;;;;;11.80;8.77;;;;;;;16.28;67.49;92784.16;5051990;28;20159;-77
2022/09/27 06:25:48;;;;;;;13.73;8.57;;;;;;;16.33;67.91;92786.53;5051234;28;20019;-77
2022/09/27 06:28:14;;;;;;;13.02;9.18;;;;;;;16.27;68.31;92792.59;5051413;28;20727;-77
2022/09/27 06:30:42;;;;;;;12.00;8.95;;;;;;;16.10;68.68;92766.41;5051470;28;20059;-77
2022/09/27 06:33:13;;;;;;;13.38;9.15;;;;;;;16.09;69.25;92797.06;5050157;28;20074;-77
2022/09/27 06:35:40;;;;;;;12.40;8.90;;;;;;;15.93;69.03;92767.84;5049527;28;20029;-76
2022/09/27 06:38:10;;;;;;;13.23;9.00;;;;;;;15.82;69.49;92761.59;5049407;28;20631;-76
2022/09/27 06:40:36;;;;;;;15.07;10.63;;;;;;;15.93;70.18;92788.50;5050104;28;20086;-76
2022/09/27 06:43:09;;;;;;;16.73;9.60;;;;;;;16.05;69.89;92788.22;5040121;28;20037;-76
2022/09/27 06:45:35;;;;;;;12.90;10.15;;;;;;;16.04;69.60;92773.25;5050289;28;20048;-76
2022/09/27 06:48:05;;;;;;;12.43;9.02;;;;;;;16.10;69.27;92774.47;5047815;28;20035;-77
2022/09/27 06:50:33;;;;;;;14.95;10.18;;;;;;;16.28;69.18;92796.84;5048361;28;20032;-77
2022/09/27 06:52:59;;;;;;;15.27;10.77;;;;;;;16.23;69.44;92773.78;5050781;28;20113;-76
2022/09/27 06:55:24;;;;;;;14.68;10.60;;;;;;;16.33;68.99;92766.22;5048689;28;20549;-77
2022/09/27 07:00:42;;;;;;;17.48;9.18;;;;;;;16.52;68.83;92788.22;5050526;28;20040;-76
2022/09/27 07:03:13;;;;;;;15.60;9.75;;;;;;;16.44;68.76;92777.78;5050789;28;20037;-77
2022/09/27 07:05:40;;;;;;;15.90;9.82;;;;;;;16.57;68.58;92795.13;5049236;28;20041;-77
2022/09/27 07:08:06;;;;;;;12.68;9.00;;;;;;;16.54;68.49;92788.59;5051612;28;20115;-77
2022/09/27 07:10:34;;;;;;;16.17;10.02;;;;;;;16.62;68.44;92792.84;5048501;28;20032;-76
2022/09/27 07:13:07;;;;;;;13.20;9.80;;;;;;;16.66;68.23;92795.56;5051683;28;20466;-77
2022/09/27 07:15:38;;;;;;;15.57;9.77;;;;;;;16.69;68.60;92800.94;5046150;28;20043;-77
2022/09/27 07:18:05;;;;;;;12.63;9.20;;;;;;;16.73;68.64;92788.31;5048569;28;20833;-77
2022/09/27 07:20:31;;;;;;;13.50;9.55;;;;;;;16.74;68.64;92786.41;5050559;28;20122;-77
2022/09/27 07:22:58;;;;;;;11.32;8.63;;;;;;;16.53;68.82;92762.13;5048798;28;20072;-77
2022/09/27 07:25:25;;;;;;;11.85;8.80;;;;;;;16.74;68.98;92781.81;5047999;28;20035;-77
2022/09/27 07:27:54;;;;;;;11.13;8.32;;;;;;;16.67;69.12;92773.69;5052543;28;20035;-76
2022/09/27 07:30:20;;;;;;;17.33;10.70;;;;;;;16.69;68.93;92789.44;5048047;28;20559;-76
2022/09/27 07:32:46;;;;;;;11.90;9.00;;;;;;;16.55;69.06;92786.69;5041797;28;20020;-78
2022/09/27 07:35:14;;;;;;;14.23;9.18;;;;;;;16.20;70.31;92787.19;5047180;28;20618;-77
2022/09/27 07:37:40;;;;;;;12.85;10.07;;;;;;;15.94;71.18;92772.03;5049029;28;20017;-76
2022/09/27 07:40:08;;;;;;;15.65;10.98;;;;;;;15.62;71.76;92763.72;5047646;28;20380;-76
2022/09/27 07:42:37;;;;;;;13.63;10.20;;;;;;;16.06;71.50;92821.94;5049116;28;20544;-77
2022/09/27 07:45:05;;;;;;;13.38;10.23;;;;;;;16.18;71.21;92832.41;5046502;28;20035;-77
2022/09/27 07:47:31;;;;;;;13.82;10.38;;;;;;;16.20;71.42;92827.41;5049394;28;20029;-77
2022/09/27 07:49:57;;;;;;;16.63;10.73;;;;;;;16.06;70.99;92793.22;5049405;28;20020;-76
2022/09/27 07:52:22;;;;;;;19.63;10.85;;;;;;;16.21;69.92;92808.28;5048483;28;20064;-77
2022/09/27 07:54:48;;;;;;;15.55;10.57;;;;;;;16.20;69.64;92798.69;5047928;28;20501;-77
2022/09/27 07:57:14;;;;;;;11.70;9.07;;;;;;;16.30;69.45;92805.25;5048807;28;20634;-77
2022/09/27 07:59:40;;;;;;;13.32;10.20;;;;;;;16.27;69.67;92820.22;5046335;28;20082;-77
2022/09/27 08:02:12;;;;;;;13.98;9.82;;;;;;;16.32;69.48;92784.25;5046672;28;20104;-77
2022/09/27 08:04:37;;;;;;;12.95;10.57;;;;;;;16.33;69.59;92773.13;5045242;28;20036;-76
2022/09/27 08:07:03;;;;;;;18.50;11.18;;;;;;;16.19;69.24;92727.41;5044588;28;20033;-76
2022/09/27 08:09:28;;;;;;;14.88;10.05;;;;;;;16.53;69.32;92773.63;5043185;28;20414;-77
2022/09/27 08:11:57;;;;;;;16.52;10.85;;;;;;;16.49;69.34;92774.75;5043095;28;20025;-76
2022/09/27 08:14:23;;;;;;;14.52;9.90;;;;;;;16.53;69.33;92770.94;5045328;28;20032;-77
2022/09/27 08:16:50;;;;;;;13.82;11.02;;;;;;;16.56;70.05;92793.59;5046139;28;20731;-76
2022/09/27 08:19:16;;;;;;;13.05;9.80;;;;;;;16.27;70.56;92782.66;5043360;28;20021;-76
2022/09/27 08:21:41;;;;;;;12.27;10.10;;;;;;;16.35;69.95;92774.66;5044439;28;20044;-77
2022/09/27 08:24:07;;;;;;;12.85;9.48;;;;;;;16.59;69.84;92811.63;5043257;28;20598;-77
2022/09/27 08:26:32;;;;;;;13.40;9.60;;;;;;;16.54;69.82;92795.88;5044918;28;20036;-76
2022/09/27 08:28:58;;;;;;;12.82;9.43;;;;;;;16.59;69.58;92788.22;5046767;28;20017;-77
2022/09/27 08:31:24;;;;;;;10.77;8.63;;;;;;;16.69;69.11;92792.91;5049126;28;20460;-76
2022/09/27 08:33:50;;;;;;;14.60;9.93;;;;;;;16.59;68.89;92753.34;5045496;28;20061;-78
2022/09/27 08:36:16;;;;;;;13.88;11.15;;;;;;;16.62;68.87;92749.16;5045001;28;20173;-77
2022/09/27 08:38:42;;;;;;;13.82;11.27;;;;;;;16.70;69.13;92762.22;5045892;28;20033;-77
2022/09/27 08:41:28;;;;;;;15.40;11.75;;;;;;;16.87;69.05;92778.78;5052356;28;21112;-77
2022/09/27 08:44:03;;;;;;;15.93;11.30;;;;;;;16.83;69.28;92778.00;5045249;28;20041;-77
2022/09/27 08:46:34;;;;;;;14.18;11.35;;;;;;;16.80;71.44;92771.47;5044130;28;20078;-76
2022/09/27 08:49:18;;;;;;;17.42;11.07;;;;;;;16.91;71.59;92766.94;5046783;28;20062;-77
2022/09/27 08:51:47;;;;;;;14.05;10.90;;;;;;;16.94;70.82;92760.78;5045548;28;20028;-76
2022/09/27 08:54:23;;;;;;;12.90;10.35;;;;;;;17.04;70.17;92772.72;5044713;28;20040;-76
2022/09/27 08:56:50;;;;;;;12.98;10.45;;;;;;;16.95;70.68;92729.34;5049085;28;20029;-76
2022/09/27 08:59:21;;;;;;;13.07;10.43;;;;;;;17.15;71.44;92771.66;5044446;28;20510;-76
2022/09/27 09:01:49;;;;;;;13.23;10.60;;;;;;;17.03;71.17;92737.03;5042010;28;20051;-77
2022/09/27 09:04:20;;;;;;;14.45;11.57;;;;;;;17.10;70.88;92720.94;5044462;28;20071;-77
2022/09/27 09:06:54;;;;;;;16.88;12.32;;;;;;;17.18;71.28;92722.53;5044049;28;20037;-77
2022/09/27 09:09:22;;;;;;;14.55;11.18;;;;;;;17.35;71.51;92736.41;5043254;28;21179;-77
2022/09/27 09:15:53;;;;;;;13.63;11.00;;;;;;;17.46;71.30;92742.53;5042012;28;20043;-77
2022/09/27 09:18:39;;;;;;;13.00;10.68;;;;;;;17.50;70.73;92754.81;5045960;28;20112;-77
2022/09/27 09:21:11;;;;;;;15.27;11.45;;;;;;;17.46;70.89;92759.44;5047074;28;20032;-77
2022/09/27 09:23:59;;;;;;;12.13;9.80;;;;;;;17.58;70.60;92755.63;5047991;28;20033;-77
2022/09/27 09:26:39;;;;;;;13.15;9.80;;;;;;;17.46;71.17;92727.19;5047465;28;20096;-77
2022/09/27 09:29:21;;;;;;;19.83;11.75;;;;;;;17.59;70.56;92752.56;5044654;28;20039;-77
2022/09/27 09:32:15;;;;;;;15.55;11.25;;;;;;;17.69;70.84;92755.66;5044464;28;20028;-76
2022/09/27 09:34:45;;;;;;;13.98;10.65;;;;;;;17.81;71.11;92752.56;5044679;28;20066;-76
2022/09/27 09:37:23;;;;;;;12.98;10.75;;;;;;;17.86;70.37;92746.81;5047829;28;20032;-77
2022/09/27 09:39:58;;;;;;;12.93;9.65;;;;;;;17.84;69.65;92720.31;5055355;28;20112;-76
2022/09/27 09:42:28;;;;;;;16.08;10.07;;;;;;;18.06;69.45;92736.47;5048878;28;20078;-76
2022/09/27 09:44:58;;;;;;;15.40;10.70;;;;;;;18.11;69.42;92746.84;5050723;28;20605;-76
2022/09/27 09:47:38;;;;;;;13.43;10.40;;;;;;;18.10;68.88;92745.28;5053454;28;20024;-76
2022/09/27 09:50:27;;;;;;;15.02;9.27;;;;;;;18.08;67.74;92750.31;5049963;28;20047;-77
2022/09/27 09:53:12;;;;;;;11.48;8.30;;;;;;;18.06;67.13;92745.31;5050311;28;20060;-76
2022/09/27 09:55:41;;;;;;;11.38;8.88;;;;;;;18.13;67.76;92760.69;5050457;28;20017;-77
2022/09/27 09:58:15;;;;;;;12.02;9.10;;;;;;;18.18;67.93;92749.53;5048849;28;20033;-77
2022/09/27 10:00:41;;;;;;;14.27;9.70;;;;;;;18.21;67.79;92754.13;5058488;28;20029;-78
2022/09/27 10:03:07;;;;;;;13.20;9.30;;;;;;;18.09;67.45;92719.56;5050477;28;20602;-76
2022/09/27 10:05:33;;;;;;;14.85;8.43;;;;;;;18.12;67.42;92726.84;5051605;28;20033;-76
2022/09/27 10:08:04;;;;;;;12.50;9.25;;;;;;;18.28;67.67;92741.47;5050268;28;20638;-77
2022/09/27 10:10:30;;;;;;;10.77;8.20;;;;;;;18.17;67.57;92718.41;5052396;28;20474;-77
2022/09/27 10:12:56;;;;;;;10.68;8.13;;;;;;;18.21;67.13;92740.69;5051060;28;20032;-77
2022/09/27 10:15:27;;;;;;;12.27;8.63;;;;;;;18.22;67.54;92734.91;5050090;28;20039;-76
2022/09/27 10:17:56;;;;;;;10.45;7.65;;;;;;;18.14;67.60;92717.22;5050219;28;20064;-77
2022/09/27 10:20:46;;;;;;;9.32;7.90;;;;;;;18.38;67.00;92739.91;5052254;28;20040;-77
2022/09/27 10:23:24;;;;;;;11.63;8.13;;;;;;;18.42;67.14;92730.66;5051587;28;20052;-77
2022/09/27 10:25:58;;;;;;;11.23;7.97;;;;;;;18.43;67.37;92744.88;5047628;28;20139;-76
2022/09/27 10:28:41;;;;;;;10.65;8.73;;;;;;;18.43;67.63;92734.88;5051439;28;20064;-77
2022/09/27 10:31:12;;;;;;;11.52;9.43;;;;;;;18.50;67.90;92736.00;5049316;28;20494;-77
2022/09/27 10:33:51;;;;;;;10.55;7.85;;;;;;;18.36;67.21;92685.69;5049947;28;20054;-77
2022/09/27 10:36:29;;;;;;;12.00;9.07;;;;;;;18.54;66.54;92716.00;5050277;28;20033;-77
2022/09/27 10:38:57;;;;;;;8.82;7.18;;;;;;;18.64;66.60;92725.97;5050404;28;20016;-77
2022/09/27 10:41:26;;;;;;;10.85;7.70;;;;;;;18.67;66.72;92714.44;5050728;28;20036;-76
2022/09/27 10:43:52;;;;;;;8.93;7.55;;;;;;;18.61;65.32;92702.53;5049842;28;20028;-76
2022/09/27 10:46:30;;;;;;;10.45;8.45;;;;;;;18.55;66.48;92703.31;5051159;28;20606;-76
2022/09/27 10:49:20;;;;;;;9.43;7.70;;;;;;;18.50;66.82;92706.41;5049108;28;20478;-77
2022/09/27 10:51:50;;;;;;;9.35;7.45;;;;;;;18.36;67.60;92685.69;5047308;28;20119;-77
2022/09/27 10:54:31;;;;;;;11.50;7.93;;;;;;;18.38;68.32;92683.38;5048281;28;20414;-76
2022/09/27 10:57:03;;;;;;;11.05;8.55;;;;;;;18.25;68.16;92671.47;5050628;28;20021;-77
2022/09/27 10:59:32;;;;;;;9.95;7.22;;;;;;;18.19;68.77;92664.94;5047821;28;20033;-77
2022/09/27 11:01:58;;;;;;;10.05;7.45;;;;;;;18.32;68.95;92663.41;5048432;28;20429;-76
2022/09/27 11:04:30;;;;;;;9.90;7.43;;;;;;;18.31;70.30;92653.78;5049380;28;20024;-76
2022/09/27 11:07:20;;;;;;;9.32;7.75;;;;;;;18.44;69.81;92668.34;5051389;28;20044;-76
2022/09/27 11:10:01;;;;;;;9.23;7.25;;;;;;;18.48;68.76;92656.41;5046398;28;20032;-77
2022/09/27 11:12:29;;;;;;;8.40;7.20;;;;;;;18.50;69.33;92666.78;5050926;28;20027;-77
2022/09/27 11:15:14;;;;;;;9.93;7.30;;;;;;;18.60;69.06;92674.06;5049489;28;20016;-76
2022/09/27 11:17:58;;;;;;;;;;;;;;;18.52;68.61;92667.19;5051139;28;20024;-76
2022/09/27 11:20:47;;;;;;;8.45;7.25;;;;;;;18.56;68.95;92667.94;5052544;28;20271;-77
2022/09/27 11:24:20;;;;;;;11.13;8.43;;;;;;;18.64;69.25;92668.66;5049740;28;20113;-76
2022/09/27 11:27:04;;;;;;;10.90;6.82;;;;;;;18.78;69.28;92674.78;4927779;28;20050;-77
2022/09/27 11:30:00;;;;;;;10.55;7.50;;;;;;;18.92;68.78;92667.81;4969195;28;21100;-77
2022/09/27 11:32:53;;;;;;;9.00;7.22;;;;;;;18.88;68.21;92622.00;5044315;28;20036;-77
2022/09/27 11:35:33;;;;;;;8.27;6.18;;;;;;;19.08;67.61;92649.22;5050327;28;20095;-76
2022/09/27 11:38:19;;;;;;;12.88;6.75;;;;;;;19.18;67.30;92643.78;5056584;28;20047;-77
2022/09/27 11:40:46;;;;;;;9.60;7.50;;;;;;;19.19;67.86;92631.84;5035552;28;20040;-77
2022/09/27 11:43:21;;;;;;;7.70;6.47;;;;;;;19.28;66.53;92631.41;5050574;28;20040;-76
2022/09/27 11:46:22;;;;;;;9.20;6.93;;;;;;;19.24;65.82;92609.09;5050678;28;20024;-76
2022/09/27 11:49:13;;;;;;;6.70;5.00;;;;;;;19.42;64.98;92625.91;5047649;28;20457;-76
2022/09/27 11:52:02;;;;;;;7.30;5.28;;;;;;;19.51;63.85;92615.47;5050495;28;20059;-78
2022/09/27 11:54:52;;;;;;;6.70;5.35;;;;;;;19.55;64.36;92597.34;5051949;28;20028;-77
2022/09/27 11:57:30;;;;;;;6.35;4.40;;;;;;;19.59;63.30;92586.50;5050548;28;20032;-77
2022/09/27 12:00:10;;;;;;;8.95;5.03;;;;;;;19.68;63.90;92601.06;5049770;28;20032;-76